sensor_id;sensor_type;location;lat;lon;timestamp;pressure;altitude;pressure_sealevel;temperature;humidity
11523;BME280;40093;43.224;27.910;2023-03-02T00:01:20;101217.47;;;6.78;100.00
11523;BME280;40093;43.224;27.910;2023-03-02T00:03:48;101200.28;;;6.77;100.00
11523;BME280;40093;43.224;27.910;2023-03-02T00:06:16;101202.72;;;6.70;100.00
11523;BME280;40093;43.224;27.910;2023-03-02T00:08:45;101198.41;;;6.69;100.00
11523;BME280;40093;43.224;27.910;2023-03-02T00:11:13;101197.47;;;6.86;100.00
11523;BME280;40093;43.224;27.910;2023-03-02T00:13:41;101197.59;;;6.89;100.00
11523;BME280;40093;43.224;27.910;2023-03-02T00:16:09;101201.66;;;7.04;100.00
11523;BME280;40093;43.224;27.910;2023-03-02T00:18:35;101194.03;;;7.09;100.00
11523;BME280;40093;43.224;27.910;2023-03-02T00:21:03;101188.75;;;7.04;100.00
11523;BME280;40093;43.224;27.910;2023-03-02T00:23:30;101183.00;;;6.97;100.00
11523;BME280;40093;43.224;27.910;2023-03-02T00:25:59;101183.69;;;6.94;100.00
11523;BME280;40093;43.224;27.910;2023-03-02T00:28:26;101175.34;;;6.91;100.00
11523;BME280;40093;43.224;27.910;2023-03-02T00:30:54;101170.63;;;6.79;100.00
11523;BME280;40093;43.224;27.910;2023-03-02T00:33:21;101168.38;;;6.81;100.00
11523;BME280;40093;43.224;27.910;2023-03-02T00:35:48;101160.38;;;6.76;100.00
11523;BME280;40093;43.224;27.910;2023-03-02T00:38:15;101155.03;;;6.59;100.00
11523;BME280;40093;43.224;27.910;2023-03-02T00:40:46;101155.31;;;6.66;100.00
11523;BME280;40093;43.224;27.910;2023-03-02T00:43:15;101160.63;;;6.83;100.00
11523;BME280;40093;43.224;27.910;2023-03-02T00:45:42;101164.03;;;6.80;100.00
11523;BME280;40093;43.224;27.910;2023-03-02T00:48:09;101150.72;;;6.91;100.00
11523;BME280;40093;43.224;27.910;2023-03-02T00:50:37;101153.41;;;6.99;100.00
11523;BME280;40093;43.224;27.910;2023-03-02T00:53:06;101163.69;;;7.02;100.00
11523;BME280;40093;43.224;27.910;2023-03-02T00:55:33;101157.09;;;7.15;100.00
11523;BME280;40093;43.224;27.910;2023-03-02T00:58:00;101140.94;;;7.22;100.00
11523;BME280;40093;43.224;27.910;2023-03-02T01:00:29;101143.91;;;7.29;100.00
11523;BME280;40093;43.224;27.910;2023-03-02T01:02:57;101144.63;;;7.38;100.00
11523;BME280;40093;43.224;27.910;2023-03-02T01:05:24;101148.47;;;7.25;100.00
11523;BME280;40093;43.224;27.910;2023-03-02T01:07:50;101137.91;;;7.35;100.00
11523;BME280;40093;43.224;27.910;2023-03-02T01:10:17;101142.34;;;6.96;100.00
11523;BME280;40093;43.224;27.910;2023-03-02T01:12:44;101145.25;;;7.11;100.00
11523;BME280;40093;43.224;27.910;2023-03-02T01:15:12;101135.91;;;7.24;100.00
11523;BME280;40093;43.224;27.910;2023-03-02T01:17:40;101136.19;;;7.31;100.00
11523;BME280;40093;43.224;27.910;2023-03-02T01:20:09;101140.09;;;7.42;100.00
11523;BME280;40093;43.224;27.910;2023-03-02T01:22:36;101132.06;;;7.37;100.00
11523;BME280;40093;43.224;27.910;2023-03-02T01:25:04;101143.78;;;7.14;100.00
11523;BME280;40093;43.224;27.910;2023-03-02T01:27:31;101125.25;;;7.11;100.00
11523;BME280;40093;43.224;27.910;2023-03-02T01:29:58;101137.00;;;6.99;100.00
11523;BME280;40093;43.224;27.910;2023-03-02T01:32:25;101125.38;;;7.02;100.00
11523;BME280;40093;43.224;27.910;2023-03-02T01:34:54;101120.94;;;7.10;100.00
11523;BME280;40093;43.224;27.910;2023-03-02T01:37:20;101123.09;;;7.04;100.00
11523;BME280;40093;43.224;27.910;2023-03-02T01:39:47;101125.22;;;6.99;100.00
11523;BME280;40093;43.224;27.910;2023-03-02T01:42:14;101120.81;;;7.06;100.00
11523;BME280;40093;43.224;27.910;2023-03-02T01:44:43;101117.78;;;6.87;100.00
11523;BME280;40093;43.224;27.910;2023-03-02T01:47:17;101121.00;;;6.89;100.00
11523;BME280;40093;43.224;27.910;2023-03-02T01:49:51;101127.38;;;6.93;100.00
11523;BME280;40093;43.224;27.910;2023-03-02T01:52:20;101133.41;;;6.87;100.00
11523;BME280;40093;43.224;27.910;2023-03-02T01:54:49;101126.47;;;6.89;100.00
11523;BME280;40093;43.224;27.910;2023-03-02T01:57:22;101128.19;;;6.73;100.00
11523;BME280;40093;43.224;27.910;2023-03-02T01:59:55;101142.59;;;6.82;100.00
11523;BME280;40093;43.224;27.910;2023-03-02T02:02:24;101138.50;;;6.76;100.00
11523;BME280;40093;43.224;27.910;2023-03-02T02:04:53;101132.47;;;6.83;100.00
11523;BME280;40093;43.224;27.910;2023-03-02T02:07:23;101128.09;;;6.49;100.00
11523;BME280;40093;43.224;27.910;2023-03-02T02:09:50;101135.47;;;6.28;100.00
11523;BME280;40093;43.224;27.910;2023-03-02T02:12:20;101127.47;;;6.23;100.00
11523;BME280;40093;43.224;27.910;2023-03-02T02:14:49;101119.81;;;6.37;100.00
11523;BME280;40093;43.224;27.910;2023-03-02T02:17:17;101122.19;;;6.18;100.00
11523;BME280;40093;43.224;27.910;2023-03-02T02:19:55;101116.13;;;6.13;100.00
11523;BME280;40093;43.224;27.910;2023-03-02T02:22:36;101124.47;;;6.16;100.00
11523;BME280;40093;43.224;27.910;2023-03-02T02:25:10;101115.72;;;6.02;100.00
11523;BME280;40093;43.224;27.910;2023-03-02T02:27:43;101116.56;;;5.94;100.00
11523;BME280;40093;43.224;27.910;2023-03-02T02:30:10;101127.50;;;6.15;100.00
11523;BME280;40093;43.224;27.910;2023-03-02T02:32:39;101125.38;;;6.20;100.00
11523;BME280;40093;43.224;27.910;2023-03-02T02:35:11;101132.19;;;6.14;100.00
11523;BME280;40093;43.224;27.910;2023-03-02T02:37:42;101121.94;;;6.32;100.00
11523;BME280;40093;43.224;27.910;2023-03-02T02:40:14;101124.97;;;6.39;100.00
11523;BME280;40093;43.224;27.910;2023-03-02T02:42:45;101128.41;;;6.48;100.00
11523;BME280;40093;43.224;27.910;2023-03-02T02:45:19;101116.22;;;6.45;100.00
11523;BME280;40093;43.224;27.910;2023-03-02T02:47:47;101121.94;;;6.52;100.00
11523;BME280;40093;43.224;27.910;2023-03-02T02:50:20;101117.88;;;6.58;100.00
11523;BME280;40093;43.224;27.910;2023-03-02T02:52:53;101116.75;;;6.59;100.00
11523;BME280;40093;43.224;27.910;2023-03-02T02:55:22;101122.50;;;6.66;100.00
11523;BME280;40093;43.224;27.910;2023-03-02T02:57:54;101122.94;;;6.48;100.00
11523;BME280;40093;43.224;27.910;2023-03-02T03:00:23;101121.41;;;6.38;100.00
11523;BME280;40093;43.224;27.910;2023-03-02T03:02:57;101119.47;;;6.18;100.00
11523;BME280;40093;43.224;27.910;2023-03-02T03:05:27;101122.34;;;6.42;100.00
11523;BME280;40093;43.224;27.910;2023-03-02T03:08:06;101127.00;;;6.62;100.00
11523;BME280;40093;43.224;27.910;2023-03-02T03:10:35;101117.97;;;6.50;100.00
11523;BME280;40093;43.224;27.910;2023-03-02T03:13:07;101123.34;;;6.58;100.00
11523;BME280;40093;43.224;27.910;2023-03-02T03:15:36;101116.34;;;6.49;100.00
11523;BME280;40093;43.224;27.910;2023-03-02T03:18:03;101124.34;;;6.54;100.00
11523;BME280;40093;43.224;27.910;2023-03-02T03:20:30;101119.16;;;6.40;100.00
11523;BME280;40093;43.224;27.910;2023-03-02T03:22:57;101114.41;;;6.49;100.00
11523;BME280;40093;43.224;27.910;2023-03-02T03:25:27;101118.88;;;6.54;100.00
11523;BME280;40093;43.224;27.910;2023-03-02T03:27:53;101126.75;;;6.55;100.00
11523;BME280;40093;43.224;27.910;2023-03-02T03:30:22;101124.44;;;6.45;100.00
11523;BME280;40093;43.224;27.910;2023-03-02T03:32:49;101126.28;;;6.53;100.00
11523;BME280;40093;43.224;27.910;2023-03-02T03:35:16;101126.28;;;6.53;100.00
11523;BME280;40093;43.224;27.910;2023-03-02T03:37:42;101129.50;;;6.55;100.00
11523;BME280;40093;43.224;27.910;2023-03-02T03:40:10;101129.91;;;6.45;100.00
11523;BME280;40093;43.224;27.910;2023-03-02T03:42:37;101137.09;;;6.50;100.00
11523;BME280;40093;43.224;27.910;2023-03-02T03:45:06;101142.69;;;6.53;100.00
11523;BME280;40093;43.224;27.910;2023-03-02T03:47:35;101136.69;;;6.39;100.00
11523;BME280;40093;43.224;27.910;2023-03-02T03:50:03;101146.41;;;6.28;100.00
11523;BME280;40093;43.224;27.910;2023-03-02T03:52:30;101152.63;;;6.37;100.00
11523;BME280;40093;43.224;27.910;2023-03-02T03:54:57;101150.72;;;6.29;100.00
11523;BME280;40093;43.224;27.910;2023-03-02T03:57:25;101158.16;;;6.29;100.00
11523;BME280;40093;43.224;27.910;2023-03-02T03:59:52;101165.16;;;6.38;100.00
11523;BME280;40093;43.224;27.910;2023-03-02T04:02:19;101163.84;;;6.44;100.00
11523;BME280;40093;43.224;27.910;2023-03-02T04:04:48;101157.75;;;6.39;100.00
11523;BME280;40093;43.224;27.910;2023-03-02T04:07:15;101163.03;;;6.44;100.00
11523;BME280;40093;43.224;27.910;2023-03-02T04:09:42;101157.69;;;6.47;100.00
11523;BME280;40093;43.224;27.910;2023-03-02T04:12:09;101163.16;;;6.47;100.00
11523;BME280;40093;43.224;27.910;2023-03-02T04:14:36;101159.28;;;6.48;100.00
11523;BME280;40093;43.224;27.910;2023-03-02T04:17:04;101159.81;;;6.62;100.00
11523;BME280;40093;43.224;27.910;2023-03-02T04:19:32;101166.03;;;6.71;100.00
11523;BME280;40093;43.224;27.910;2023-03-02T04:22:03;101160.38;;;6.76;100.00
11523;BME280;40093;43.224;27.910;2023-03-02T04:24:30;101150.94;;;6.65;100.00
11523;BME280;40093;43.224;27.910;2023-03-02T04:26:57;101159.34;;;6.60;100.00
11523;BME280;40093;43.224;27.910;2023-03-02T04:29:24;101154.34;;;6.62;100.00
11523;BME280;40093;43.224;27.910;2023-03-02T04:31:52;101157.94;;;6.54;100.00
11523;BME280;40093;43.224;27.910;2023-03-02T04:34:20;101165.28;;;6.62;100.00
11523;BME280;40093;43.224;27.910;2023-03-02T04:36:47;101160.56;;;6.71;100.00
11523;BME280;40093;43.224;27.910;2023-03-02T04:39:17;101170.63;;;6.79;100.00
11523;BME280;40093;43.224;27.910;2023-03-02T04:41:44;101167.56;;;6.81;100.00
11523;BME280;40093;43.224;27.910;2023-03-02T04:44:12;101173.44;;;6.91;100.00
11523;BME280;40093;43.224;27.910;2023-03-02T04:46:39;101181.41;;;6.96;100.00
11523;BME280;40093;43.224;27.910;2023-03-02T04:49:06;101180.34;;;7.09;100.00
11523;BME280;40093;43.224;27.910;2023-03-02T04:51:37;101174.22;;;7.12;100.00
11523;BME280;40093;43.224;27.910;2023-03-02T04:54:06;101184.75;;;7.22;100.00
11523;BME280;40093;43.224;27.910;2023-03-02T04:56:34;101188.84;;;7.28;100.00
11523;BME280;40093;43.224;27.910;2023-03-02T04:59:01;101189.03;;;7.11;100.00
11523;BME280;40093;43.224;27.910;2023-03-02T05:01:28;101197.44;;;7.06;100.00
11523;BME280;40093;43.224;27.910;2023-03-02T05:03:55;101199.97;;;7.11;100.00
11523;BME280;40093;43.224;27.910;2023-03-02T05:06:22;101192.28;;;7.25;100.00
11523;BME280;40093;43.224;27.910;2023-03-02T05:08:50;101192.31;;;7.37;100.00
11523;BME280;40093;43.224;27.910;2023-03-02T05:11:17;101199.63;;;7.45;100.00
11523;BME280;40093;43.224;27.910;2023-03-02T05:13:49;101198.31;;;7.51;100.00
11523;BME280;40093;43.224;27.910;2023-03-02T05:16:16;101199.53;;;7.53;100.00
11523;BME280;40093;43.224;27.910;2023-03-02T05:18:43;101198.75;;;7.53;100.00
11523;BME280;40093;43.224;27.910;2023-03-02T05:21:12;101197.75;;;7.57;100.00
11523;BME280;40093;43.224;27.910;2023-03-02T05:23:40;101201.72;;;7.60;100.00
11523;BME280;40093;43.224;27.910;2023-03-02T05:26:07;101204.00;;;7.58;100.00
11523;BME280;40093;43.224;27.910;2023-03-02T05:28:35;101207.56;;;7.58;100.00
11523;BME280;40093;43.224;27.910;2023-03-02T05:31:03;101194.66;;;7.59;100.00
11523;BME280;40093;43.224;27.910;2023-03-02T05:33:30;101206.97;;;7.53;100.00
11523;BME280;40093;43.224;27.910;2023-03-02T05:35:57;101170.41;;;7.37;100.00
11523;BME280;40093;43.224;27.910;2023-03-02T05:38:24;101200.44;;;7.45;100.00
11523;BME280;40093;43.224;27.910;2023-03-02T05:40:52;101198.41;;;7.54;100.00
11523;BME280;40093;43.224;27.910;2023-03-02T05:43:20;101198.75;;;7.53;100.00
11523;BME280;40093;43.224;27.910;2023-03-02T05:45:48;101207.00;;;7.32;100.00
11523;BME280;40093;43.224;27.910;2023-03-02T05:48:16;101201.03;;;7.19;100.00
11523;BME280;40093;43.224;27.910;2023-03-02T05:50:51;101204.63;;;7.31;100.00
11523;BME280;40093;43.224;27.910;2023-03-02T05:53:18;101208.53;;;7.42;100.00
11523;BME280;40093;43.224;27.910;2023-03-02T05:55:45;101209.59;;;7.29;100.00
11523;BME280;40093;43.224;27.910;2023-03-02T05:58:15;101205.84;;;7.01;100.00
11523;BME280;40093;43.224;27.910;2023-03-02T06:00:42;101217.94;;;7.00;100.00
11523;BME280;40093;43.224;27.910;2023-03-02T06:03:09;101219.72;;;7.17;100.00
11523;BME280;40093;43.224;27.910;2023-03-02T06:05:38;101223.28;;;7.29;100.00
11523;BME280;40093;43.224;27.910;2023-03-02T06:08:05;101229.72;;;7.33;100.00
11523;BME280;40093;43.224;27.910;2023-03-02T06:10:33;101228.53;;;7.22;100.00
11523;BME280;40093;43.224;27.910;2023-03-02T06:13:01;101239.31;;;7.39;100.00
11523;BME280;40093;43.224;27.910;2023-03-02T06:15:28;101245.63;;;7.51;100.00
11523;BME280;40093;43.224;27.910;2023-03-02T06:17:55;101232.53;;;7.57;100.00
11523;BME280;40093;43.224;27.910;2023-03-02T06:20:22;101244.22;;;7.66;100.00
11523;BME280;40093;43.224;27.910;2023-03-02T06:22:50;101229.84;;;7.81;100.00
11523;BME280;40093;43.224;27.910;2023-03-02T06:25:19;101237.88;;;7.86;100.00
11523;BME280;40093;43.224;27.910;2023-03-02T06:27:47;101241.75;;;7.97;99.99
11523;BME280;40093;43.224;27.910;2023-03-02T06:32:44;101248.84;;;8.10;98.97
11523;BME280;40093;43.224;27.910;2023-03-02T06:35:11;101250.28;;;8.28;97.54
11523;BME280;40093;43.224;27.910;2023-03-02T06:37:38;101253.47;;;8.42;95.80
11523;BME280;40093;43.224;27.910;2023-03-02T06:40:08;101252.69;;;8.53;94.67
11523;BME280;40093;43.224;27.910;2023-03-02T06:42:36;101255.19;;;8.46;92.46
11523;BME280;40093;43.224;27.910;2023-03-02T06:45:05;101253.59;;;8.21;93.78
11523;BME280;40093;43.224;27.910;2023-03-02T06:47:32;101256.09;;;8.38;94.32
11523;BME280;40093;43.224;27.910;2023-03-02T06:49:59;101249.69;;;8.58;93.28
11523;BME280;40093;43.224;27.910;2023-03-02T06:52:26;101262.63;;;8.70;93.37
11523;BME280;40093;43.224;27.910;2023-03-02T06:54:53;101259.97;;;8.61;91.99
11523;BME280;40093;43.224;27.910;2023-03-02T06:57:22;101267.16;;;8.66;90.28
11523;BME280;40093;43.224;27.910;2023-03-02T06:59:48;101262.16;;;8.68;89.71
11523;BME280;40093;43.224;27.910;2023-03-02T07:02:15;101257.34;;;8.53;89.83
11523;BME280;40093;43.224;27.910;2023-03-02T07:04:42;101266.28;;;8.50;91.28
11523;BME280;40093;43.224;27.910;2023-03-02T07:07:09;101270.16;;;8.49;91.30
11523;BME280;40093;43.224;27.910;2023-03-02T07:09:36;101268.66;;;8.39;90.75
11523;BME280;40093;43.224;27.910;2023-03-02T07:12:03;101264.66;;;8.61;89.61
11523;BME280;40093;43.224;27.910;2023-03-02T07:14:33;101271.19;;;8.68;88.38
11523;BME280;40093;43.224;27.910;2023-03-02T07:17:03;101266.69;;;8.76;87.51
11523;BME280;40093;43.224;27.910;2023-03-02T07:19:29;101264.88;;;8.92;87.21
11523;BME280;40093;43.224;27.910;2023-03-02T07:21:56;101268.88;;;8.94;85.82
11523;BME280;40093;43.224;27.910;2023-03-02T07:24:24;101265.09;;;8.75;87.16
11523;BME280;40093;43.224;27.910;2023-03-02T07:26:51;101259.50;;;8.71;86.74
11523;BME280;40093;43.224;27.910;2023-03-02T07:29:18;101260.06;;;8.77;86.07
11523;BME280;40093;43.224;27.910;2023-03-02T07:31:46;101250.00;;;8.93;85.55
11523;BME280;40093;43.224;27.910;2023-03-02T07:34:13;101251.47;;;8.90;85.54
11523;BME280;40093;43.224;27.910;2023-03-02T07:36:40;101255.41;;;8.65;87.26
11523;BME280;40093;43.224;27.910;2023-03-02T07:39:07;101255.75;;;8.28;89.21
11523;BME280;40093;43.224;27.910;2023-03-02T07:41:34;101264.19;;;8.35;90.37
11523;BME280;40093;43.224;27.910;2023-03-02T07:44:01;101263.88;;;8.36;90.08
11523;BME280;40093;43.224;27.910;2023-03-02T07:46:28;101260.56;;;8.43;90.13
11523;BME280;40093;43.224;27.910;2023-03-02T07:48:56;101256.66;;;8.56;89.61
11523;BME280;40093;43.224;27.910;2023-03-02T07:51:24;101254.28;;;8.30;90.45
11523;BME280;40093;43.224;27.910;2023-03-02T07:53:51;101253.47;;;8.30;90.68
11523;BME280;40093;43.224;27.910;2023-03-02T07:56:18;101259.09;;;8.33;91.09
11523;BME280;40093;43.224;27.910;2023-03-02T07:58:45;101255.25;;;8.14;91.64
11523;BME280;40093;43.224;27.910;2023-03-02T08:01:12;101243.81;;;8.00;93.92
11523;BME280;40093;43.224;27.910;2023-03-02T08:03:39;101248.97;;;8.13;94.89
11523;BME280;40093;43.224;27.910;2023-03-02T08:06:10;101242.47;;;8.06;94.60
11523;BME280;40093;43.224;27.910;2023-03-02T08:08:37;101249.88;;;8.17;95.78
11523;BME280;40093;43.224;27.910;2023-03-02T08:11:05;101246.84;;;8.19;95.37
11523;BME280;40093;43.224;27.910;2023-03-02T08:13:32;101251.44;;;8.27;95.93
11523;BME280;40093;43.224;27.910;2023-03-02T08:15:59;101256.22;;;8.30;95.54
11523;BME280;40093;43.224;27.910;2023-03-02T08:18:26;101261.91;;;8.25;95.18
11523;BME280;40093;43.224;27.910;2023-03-02T08:20:53;101259.88;;;8.34;95.21
11523;BME280;40093;43.224;27.910;2023-03-02T08:23:22;101267.19;;;8.42;95.33
11523;BME280;40093;43.224;27.910;2023-03-02T08:25:50;101262.28;;;8.47;95.71
11523;BME280;40093;43.224;27.910;2023-03-02T08:28:18;101261.69;;;8.42;96.04
11523;BME280;40093;43.224;27.910;2023-03-02T08:30:53;101259.28;;;8.40;97.06
11523;BME280;40093;43.224;27.910;2023-03-02T08:33:21;101258.94;;;8.54;96.86
11523;BME280;40093;43.224;27.910;2023-03-02T08:35:54;101257.34;;;8.65;96.41
11523;BME280;40093;43.224;27.910;2023-03-02T08:38:22;101256.19;;;8.66;95.65
11523;BME280;40093;43.224;27.910;2023-03-02T08:40:49;101261.56;;;8.50;95.74
11523;BME280;40093;43.224;27.910;2023-03-02T08:43:17;101263.09;;;8.36;96.87
11523;BME280;40093;43.224;27.910;2023-03-02T08:45:44;101263.41;;;8.34;97.87
11523;BME280;40093;43.224;27.910;2023-03-02T08:48:11;101257.81;;;8.31;98.43
11523;BME280;40093;43.224;27.910;2023-03-02T08:50:38;101263.19;;;8.39;98.36
11523;BME280;40093;43.224;27.910;2023-03-02T08:53:05;101258.06;;;8.26;98.17
11523;BME280;40093;43.224;27.910;2023-03-02T08:55:35;101265.78;;;8.24;98.14
11523;BME280;40093;43.224;27.910;2023-03-02T08:58:02;101258.25;;;8.21;98.37
11523;BME280;40093;43.224;27.910;2023-03-02T09:00:29;101264.69;;;8.37;98.54
11523;BME280;40093;43.224;27.910;2023-03-02T09:02:56;101270.75;;;8.30;97.92
11523;BME280;40093;43.224;27.910;2023-03-02T09:05:23;101264.06;;;8.19;97.95
11523;BME280;40093;43.224;27.910;2023-03-02T09:07:50;101262.84;;;8.29;97.78
11523;BME280;40093;43.224;27.910;2023-03-02T09:10:17;101260.81;;;8.38;97.95
11523;BME280;40093;43.224;27.910;2023-03-02T09:12:45;101264.22;;;8.47;97.04
11523;BME280;40093;43.224;27.910;2023-03-02T09:15:12;101265.59;;;8.41;97.30
11523;BME280;40093;43.224;27.910;2023-03-02T09:17:39;101255.75;;;8.52;97.38
11523;BME280;40093;43.224;27.910;2023-03-02T09:20:07;101261.38;;;8.43;96.78
11523;BME280;40093;43.224;27.910;2023-03-02T09:22:35;101257.13;;;8.46;96.33
11523;BME280;40093;43.224;27.910;2023-03-02T09:25:03;101257.81;;;8.55;95.32
11523;BME280;40093;43.224;27.910;2023-03-02T09:27:30;101268.09;;;8.70;93.37
11523;BME280;40093;43.224;27.910;2023-03-02T09:29:59;101252.75;;;8.81;91.46
11523;BME280;40093;43.224;27.910;2023-03-02T09:32:25;101251.34;;;8.87;89.32
11523;BME280;40093;43.224;27.910;2023-03-02T09:34:52;101259.56;;;8.99;89.70
11523;BME280;40093;43.224;27.910;2023-03-02T09:37:19;101245.19;;;8.90;89.22
11523;BME280;40093;43.224;27.910;2023-03-02T09:39:46;101254.25;;;8.78;88.54
11523;BME280;40093;43.224;27.910;2023-03-02T09:42:31;101230.63;;;9.01;85.20
11523;BME280;40093;43.224;27.910;2023-03-02T09:45:24;101233.88;;;9.19;83.48
11523;BME280;40093;43.224;27.910;2023-03-02T09:48:04;101224.66;;;9.39;81.16
11523;BME280;40093;43.224;27.910;2023-03-02T09:50:38;101229.66;;;9.49;76.46
11523;BME280;40093;43.224;27.910;2023-03-02T09:53:24;101252.50;;;9.53;73.17
11523;BME280;40093;43.224;27.910;2023-03-02T09:55:55;101231.44;;;9.57;68.50
11523;BME280;40093;43.224;27.910;2023-03-02T09:58:28;101225.16;;;9.72;67.14
11523;BME280;40093;43.224;27.910;2023-03-02T10:01:00;101223.88;;;9.96;66.14
11523;BME280;40093;43.224;27.910;2023-03-02T10:03:33;101217.25;;;10.13;65.32
11523;BME280;40093;43.224;27.910;2023-03-02T10:06:01;101216.97;;;10.33;64.69
11523;BME280;40093;43.224;27.910;2023-03-02T10:08:44;101214.38;;;10.56;63.96
11523;BME280;40093;43.224;27.910;2023-03-02T10:11:29;101211.28;;;10.76;62.62
11523;BME280;40093;43.224;27.910;2023-03-02T10:14:02;101205.47;;;10.62;62.86
11523;BME280;40093;43.224;27.910;2023-03-02T10:16:36;101203.84;;;10.77;63.35
11523;BME280;40093;43.224;27.910;2023-03-02T10:19:07;101198.28;;;10.92;62.01
11523;BME280;40093;43.224;27.910;2023-03-02T10:21:37;101198.84;;;10.82;62.34
11523;BME280;40093;43.224;27.910;2023-03-02T10:24:13;101210.56;;;10.79;62.98
11523;BME280;40093;43.224;27.910;2023-03-02T10:26:42;101204.44;;;10.51;65.36
11523;BME280;40093;43.224;27.910;2023-03-02T10:29:27;101195.59;;;10.27;68.17
11523;BME280;40093;43.224;27.910;2023-03-02T10:32:03;101204.56;;;10.24;67.97
11523;BME280;40093;43.224;27.910;2023-03-02T10:34:37;101192.63;;;10.35;67.82
11523;BME280;40093;43.224;27.910;2023-03-02T10:37:09;101190.78;;;10.39;69.09
11523;BME280;40093;43.224;27.910;2023-03-02T10:39:38;101195.53;;;10.58;68.40
11523;BME280;40093;43.224;27.910;2023-03-02T10:42:06;101191.22;;;10.76;68.32
11523;BME280;40093;43.224;27.910;2023-03-02T10:44:39;101191.44;;;10.86;68.45
11523;BME280;40093;43.224;27.910;2023-03-02T10:47:18;101187.69;;;10.94;67.78
11523;BME280;40093;43.224;27.910;2023-03-02T10:49:46;101200.75;;;11.16;67.54
11523;BME280;40093;43.224;27.910;2023-03-02T10:52:15;101181.88;;;11.18;65.31
11523;BME280;40093;43.224;27.910;2023-03-02T10:54:42;101179.44;;;11.13;65.59
11523;BME280;40093;43.224;27.910;2023-03-02T10:57:28;101183.78;;;10.95;66.32
11523;BME280;40093;43.224;27.910;2023-03-02T11:00:00;101182.91;;;10.91;66.11
11523;BME280;40093;43.224;27.910;2023-03-02T11:02:36;101181.16;;;10.83;67.02
11523;BME280;40093;43.224;27.910;2023-03-02T11:05:22;101169.34;;;10.83;67.10
11523;BME280;40093;43.224;27.910;2023-03-02T11:07:54;101162.00;;;10.90;67.13
11523;BME280;40093;43.224;27.910;2023-03-02T11:10:24;101161.25;;;11.09;67.27
11523;BME280;40093;43.224;27.910;2023-03-02T11:12:52;101167.53;;;11.09;67.52
11523;BME280;40093;43.224;27.910;2023-03-02T11:15:24;101168.09;;;10.99;67.71
11523;BME280;40093;43.224;27.910;2023-03-02T11:17:59;101152.16;;;10.89;68.42
11523;BME280;40093;43.224;27.910;2023-03-02T11:20:30;101159.91;;;10.84;68.75
11523;BME280;40093;43.224;27.910;2023-03-02T11:23:12;101152.03;;;10.82;69.20
11523;BME280;40093;43.224;27.910;2023-03-02T11:25:44;101152.03;;;10.82;69.39
11523;BME280;40093;43.224;27.910;2023-03-02T11:28:21;101147.22;;;10.79;69.95
11523;BME280;40093;43.224;27.910;2023-03-02T11:30:55;101147.78;;;10.69;70.08
11523;BME280;40093;43.224;27.910;2023-03-02T11:33:28;101142.38;;;10.73;71.13
11523;BME280;40093;43.224;27.910;2023-03-02T11:35:58;101150.44;;;10.81;71.06
11523;BME280;40093;43.224;27.910;2023-03-02T11:38:28;101148.03;;;10.80;71.13
11523;BME280;40093;43.224;27.910;2023-03-02T11:40:59;101152.97;;;10.90;71.04
11523;BME280;40093;43.224;27.910;2023-03-02T11:43:28;101152.81;;;10.83;71.19
11523;BME280;40093;43.224;27.910;2023-03-02T11:45:57;101153.81;;;10.75;71.94
11523;BME280;40093;43.224;27.910;2023-03-02T11:48:28;101149.56;;;10.77;72.46
11523;BME280;40093;43.224;27.910;2023-03-02T11:50:59;101145.63;;;10.78;72.68
11523;BME280;40093;43.224;27.910;2023-03-02T11:53:29;101137.03;;;10.80;73.16
11523;BME280;40093;43.224;27.910;2023-03-02T11:55:58;101139.69;;;10.76;72.82
11523;BME280;40093;43.224;27.910;2023-03-02T11:58:27;101130.78;;;10.83;72.70
11523;BME280;40093;43.224;27.910;2023-03-02T12:00:55;101135.50;;;10.82;71.85
11523;BME280;40093;43.224;27.910;2023-03-02T12:03:37;101133.91;;;10.81;72.51
11523;BME280;40093;43.224;27.910;2023-03-02T12:06:07;101114.84;;;10.73;72.86
11523;BME280;40093;43.224;27.910;2023-03-02T12:08:52;101125.19;;;10.79;73.37
11523;BME280;40093;43.224;27.910;2023-03-02T12:11:31;101123.09;;;10.92;73.88
11523;BME280;40093;43.224;27.910;2023-03-02T12:14:01;101124.63;;;10.89;72.50
11523;BME280;40093;43.224;27.910;2023-03-02T12:16:34;101111.94;;;10.85;71.98
11523;BME280;40093;43.224;27.910;2023-03-02T12:19:12;101110.00;;;10.66;73.09
11523;BME280;40093;43.224;27.910;2023-03-02T12:21:42;101127.31;;;10.67;72.79
11523;BME280;40093;43.224;27.910;2023-03-02T12:24:23;101112.09;;;10.73;72.49
11523;BME280;40093;43.224;27.910;2023-03-02T12:27:00;101113.03;;;10.61;73.37
11523;BME280;40093;43.224;27.910;2023-03-02T12:29:37;101123.47;;;10.71;72.15
11523;BME280;40093;43.224;27.910;2023-03-02T12:32:10;101125.47;;;10.55;71.09
11523;BME280;40093;43.224;27.910;2023-03-02T12:34:42;101126.22;;;10.52;71.10
11523;BME280;40093;43.224;27.910;2023-03-02T12:37:14;101131.47;;;10.42;72.68
11523;BME280;40093;43.224;27.910;2023-03-02T12:39:58;101129.41;;;10.54;72.20
11523;BME280;40093;43.224;27.910;2023-03-02T12:42:47;101128.19;;;10.71;71.24
11523;BME280;40093;43.224;27.910;2023-03-02T12:45:26;101117.09;;;10.67;71.06
11523;BME280;40093;43.224;27.910;2023-03-02T12:48:02;101130.41;;;10.65;71.64
11523;BME280;40093;43.224;27.910;2023-03-02T12:50:36;101130.00;;;10.63;71.09
11523;BME280;40093;43.224;27.910;2023-03-02T12:53:15;101132.09;;;10.70;70.75
11523;BME280;40093;43.224;27.910;2023-03-02T12:55:43;101130.63;;;10.57;69.62
11523;BME280;40093;43.224;27.910;2023-03-02T12:58:16;101129.91;;;10.60;68.91